Weather observations for the past three days for
Grand Marais/Cook County Airport
Metric (Imperial)
Date Time (cdt) Wind (kph) Vis. (km) Weather Sky Cond. Temperature (ºC) Relative Humidity Wind Chill (°C) Heat Index (°C) Pressure Precipitation (cm)
Air Dwpt 6 hour altimeter (cm) sea level (mb) 1 hr 3 hr 6 hr
Max. Min.
03 14:15 W 19 G 35 16.09 Fair CLR 14 -6 25% 75.13 0.0
03 13:55 NW 20 G 39 16.09 Fair CLR 14 -6 25% 75.13 0.0
03 13:35 N 19 G 35 16.09 Fair CLR 14 -6 25% 75.13 0.0
03 13:15 N 20 G 30 16.09 Fair CLR 14 -5 27% 75.13 0.0
03 12:55 NW 22 G 44 16.09 Fair CLR 14 -5 27% 75.16 0.0
03 12:35 W 13 G 33 16.09 Fair CLR 14 -6 25% 75.16 0.0
03 12:15 NW 20 G 37 16.09 Fair CLR 14 -6 25% 75.16 0.0
03 11:55 NW 13 G 30 16.09 Fair CLR 15 -2 31% 75.16 0.0
03 11:35 NW 22 G 37 16.09 Partly Cloudy SCT050 14 -1 36% 75.16 0.0
03 11:15 NW 15 G 26 16.09 Fair CLR 15 1 39% 75.16 0.0
03 10:55 NW 17 16.09 Partly Cloudy SCT043 14 2 44% 75.16 0.0
03 10:35 NW 11 G 26 16.09 Partly Cloudy SCT047 SCT055 SCT065 13 2 47% 75.18 0.0
03 10:15 NW 13 G 28 16.09 Partly Cloudy SCT065 14 3 48% 75.16 0.0
03 09:55 NW 13 16.09 Fair CLR 13 4 55% 75.16 0.0
03 09:35 W 15 G 26 16.09 Partly Cloudy SCT065 13 4 55% 75.21 0.0
03 09:15 W 13 16.09 Mostly Cloudy SCT065 BKN075 12 4 58% 75.21 0.0
03 08:55 NW 19 G 35 16.09 Partly Cloudy SCT065 12 4 58% 75.23 0.0
03 08:35 W 11 16.09 Fair CLR 12 4 58% 75.21 0.0
03 08:15 W 9 16.09 Fair CLR 11 4 62% 75.23 0.0
03 07:55 W 9 16.09 Fair CLR 10 4 67% 9 75.23 0.0
03 07:35 W 7 16.09 Partly Cloudy SCT075 8 4 76% 7 75.23 0.0
03 07:15 NW 9 16.09 Overcast OVC075 7 4 81% 5 75.23 0.0
03 06:55 NW 7 16.09 Mostly Cloudy BKN075 6 4 87% 5 75.23 0.0
03 06:35 W 7 16.09 Fair CLR 6 3 81% 5 75.23 0.0
03 06:15 W 7 16.09 Fair CLR 5 3 87% 4 75.26 0.0
03 05:55 W 9 16.09 Fair CLR 4 3 93% 2 75.26 0.0
03 05:35 W 9 16.09 NULL NULL 4 2 87% 2 75.26 0.0
03 05:15 NW 7 16.09 Fair CLR 3 1 87% 1 75.29 0.0
03 04:55 W 7 16.09 Fair CLR 3 -1 75% 1 75.29 0.0
03 04:35 W 7 16.09 Fair CLR 3 -2 70% 1 75.31 0.0
03 04:15 Calm 16.09 Partly Cloudy SCT100 3 -4 60% 75.31 0.0
03 03:55 Calm 16.09 Mostly Cloudy BKN100 3 -6 52% 75.34 0.0
03 03:35 Calm 16.09 Mostly Cloudy BKN100 3 -6 52% 75.34 0.0
03 03:15 Calm 16.09 Mostly Cloudy BKN100 3 -4 60% 75.36 0.0
03 02:55 Calm 16.09 Mostly Cloudy BKN100 3 -3 65% 75.36 0.0
03 02:35 NE 6 16.09 Overcast OVC110 2 -2 75% 75.36 0.0
03 02:15 Calm 16.09 Mostly Cloudy BKN100 3 -3 65% 75.39 0.0
03 01:55 Calm 16.09 Mostly Cloudy BKN090 BKN110 3 -2 70% 75.41 0.0
03 01:35 N 6 16.09 Overcast OVC090 3 -2 70% 75.41 0.0
03 01:15 Calm 16.09 Overcast SCT060 OVC090 4 -4 56% 75.44 0.0
03 00:55 Calm 16.09 Overcast SCT060 BKN075 OVC090 4 -3 61% 75.46 0.0
03 00:35 Calm 16.09 Overcast SCT075 OVC100 4 -3 61% 75.46 0.0
03 00:15 Calm 16.09 Overcast BKN065 OVC110 5 -6 45% 75.46 0.0
02 23:55 E 6 16.09 Overcast BKN065 OVC075 6 -7 39% 75.46 0.0
02 23:35 Calm 16.09 Overcast OVC065 6 -7 39% 75.49 0.0
02 23:15 Calm 16.09 Overcast OVC065 4 -4 56% 75.51 0.0
02 22:55 Calm 16.09 Mostly Cloudy BKN075 6 -6 42% 75.54 0.0
02 22:35 Calm 16.09 Mostly Cloudy BKN075 6 -8 36% 75.54 0.0
02 22:15 Calm 16.09 Overcast OVC075 5 -5 49% 75.59 0.0
02 21:55 Calm 16.09 Overcast OVC075 5 -4 53% 75.59 0.0
02 21:35 Calm 16.09 Overcast OVC075 6 -6 42% 75.59 0.0
02 21:15 Calm 16.09 Overcast BKN075 OVC090 6 -8 36% 75.62 0.0
02 20:55 Calm 16.09 Overcast SCT075 OVC090 6 -7 39% 75.62 0.0
02 20:35 Calm 16.09 Overcast OVC075 6 -7 39% 75.62 0.0
02 20:15 Calm 16.09 Mostly Cloudy BKN085 BKN110 6 -7 39% 75.62 0.0
02 19:55 S 6 16.09 Partly Cloudy SCT085 6 -7 39% 75.64 0.0
02 19:35 S 6 16.09 Partly Cloudy SCT085 7 -7 37% 75.64 0.0
02 19:15 S 7 16.09 Fair CLR 7 -7 37% 6 75.67 0.0
02 18:55 S 6 16.09 Fair CLR 7 -7 37% 75.69 0.0
02 18:35 S 6 16.09 Fair CLR 8 -7 34% 75.69 0.0
02 18:15 S 6 16.09 Fair CLR 8 -7 34% 75.72 0.0
02 17:55 S 7 16.09 Fair CLR 8 -7 34% 7 75.72 0.0
02 17:35 S 13 16.09 Fair CLR 9 -6 34% 7 75.74 0.0
02 17:15 S 13 16.09 Fair CLR 10 -6 32% 8 75.74 0.0
02 16:55 S 17 G 26 16.09 Fair CLR 10 -6 32% 8 75.77 0.0
02 16:35 S 13 16.09 Fair CLR 10 -6 32% 8 75.77 0.0
02 16:15 S 20 G 28 16.09 Fair CLR 10 -7 30% 8 75.79 0.0
02 15:55 S 19 G 28 16.09 Fair CLR 10 -7 30% 8 75.82 0.0
02 15:35 SW 22 G 30 16.09 Fair CLR 10 -7 30% 7 75.84 0.0
02 15:15 SW 17 G 30 16.09 Fair CLR 10 -7 30% 8 75.84 0.0
02 14:55 SW 20 G 30 16.09 Fair CLR 10 -7 30% 8 75.87 0.0
02 14:35 SW 20 G 31 16.09 Fair CLR 10 -7 30% 8 75.9 0.0
02 14:15 S 19 G 28 16.09 Fair CLR 11 -7 28% 75.9 0.0
02 13:55 SW 17 G 33 16.09 Fair CLR 10 -7 30% 8 75.92 0.0
02 13:35 SW 15 G 26 16.09 Fair CLR 11 -6 30% 75.92 0.0
02 13:15 S 15 G 28 16.09 Fair CLR 11 -6 30% 75.95 0.0
02 12:55 S 9 G 26 16.09 Fair CLR 11 -6 30% 75.95 0.0
02 12:35 S 17 16.09 Fair CLR 11 -6 30% 75.97 0.0
02 12:15 S 13 16.09 Fair CLR 10 -6 32% 8 76 0.0
02 11:55 S 7 16.09 Fair CLR 11 -6 30% 76 0.0
02 11:35 W 7 16.09 Fair CLR 11 -7 28% 76.02 0.0
02 11:15 NW 7 16.09 Fair CLR 10 -7 30% 9 76.05 0.0
02 10:55 Calm 16.09 Fair CLR 10 -7 30% 76.05 0.0
02 10:35 SW 11 16.09 Fair CLR 9 -7 32% 8 76.07 0.0
02 10:15 SW 7 16.09 Fair CLR 9 -8 29% 8 76.1 0.0
02 09:55 W 13 16.09 Fair CLR 9 -8 29% 7 76.12 0.0
02 09:35 NW 7 16.09 Fair CLR 9 -7 32% 8 76.12 0.0
02 09:15 W 11 16.09 Fair CLR 8 -8 32% 6 76.15 0.0
02 08:55 Calm 16.09 Fair CLR 8 -7 34% 76.15 0.0
02 08:35 W 6 16.09 Fair CLR 7 -7 37% 76.15 0.0
02 08:15 NW 9 16.09 Fair CLR 6 -7 39% 4 76.15 0.0
02 07:55 W 6 16.09 Fair CLR 5 -7 42% 76.15 0.0
02 07:35 Calm 16.09 Fair CLR 3 -4 60% 76.15 0.0
02 07:15 Calm 16.09 Fair CLR -1 -3 86% 76.17 0.0
02 06:55 Calm 16.09 Fair CLR -3 -4 93% 76.17 0.0
02 06:35 Calm 16.09 Fair CLR -4 -6 86% 76.17 0.0
02 06:15 Calm 16.09 Fair CLR -6 -6 100% 76.17 0.0
02 05:55 Calm 16.09 Fair CLR -6 -7 93% 76.17 0.0
02 05:35 NW 6 16.09 Fair CLR -6 -7 93% 76.17 0.0
02 05:15 Calm 16.09 Fair CLR -6 -7 93% 76.17 0.0
02 04:55 Calm 16.09 Fair CLR -6 -7 93% 76.17 0.0
02 04:35 NW 6 16.09 Fair CLR -6 -6 100% 76.17 0.0
02 04:15 NW 6 16.09 Fair CLR -6 -6 100% 76.17 0.0
02 03:55 Calm 16.09 Fair CLR -6 -6 100% 76.2 0.0
02 03:35 Calm 16.09 Fair CLR -6 -6 100% 76.2 0.0
02 03:15 Calm 16.09 Fair CLR -5 -6 93% 76.2 0.0
02 02:55 Calm 16.09 Fair CLR -5 -6 93% 76.2 0.0
02 02:35 Calm 16.09 Fair CLR -5 -6 93% 76.23 0.0
02 02:15 Calm 16.09 Fair CLR -5 -6 93% 76.23 0.0
02 01:55 Calm 16.09 Fair CLR -4 -6 86% 76.25 0.0
02 01:35 Calm 16.09 Fair CLR -4 -5 93% 76.25 0.0
02 01:15 Calm 16.09 Fair CLR -4 -5 93% 76.25 0.0
02 00:55 Calm 16.09 Fair CLR -4 -6 86% 76.25 0.0
02 00:35 Calm 16.09 Fair CLR -3 -5 86% 76.25 0.0
02 00:15 Calm 16.09 Fair CLR -3 -5 86% 76.25 0.0
01 23:55 Calm 16.09 Fair CLR -3 -5 86% 76.28 0.0
01 23:35 Calm 16.09 Fair CLR -3 -4 93% 76.28 0.0
01 23:15 Calm 16.09 Fair CLR -2 -5 80% 76.28 0.0
01 22:55 N 6 16.09 Fair CLR -3 -4 93% 76.28 0.0
01 22:35 Calm 16.09 Fair CLR -2 -6 74% 76.28 0.0
01 22:15 NW 6 16.09 Fair CLR -1 -6 69% 76.28 0.0
01 21:55 NW 6 16.09 Fair CLR -1 -7 64% 76.28 0.0
01 21:35 NW 6 16.09 Fair CLR 0 -7 60% 76.28 0.0
01 21:15 W 6 16.09 Fair CLR 0 -7 60% 76.28 0.0
01 20:55 Calm 16.09 Fair CLR 1 -7 56% 76.28 0.0
01 20:35 Calm 16.09 Partly Cloudy SCT070 1 -7 56% 76.25 0.0
01 20:15 Calm 16.09 Mostly Cloudy BKN080 1 -7 56% 76.25 0.0
01 19:55 Calm 16.09 Overcast OVC080 2 -6 56% 76.25 0.0
01 19:35 Calm 16.09 Overcast OVC080 3 -7 48% 76.25 0.0
01 19:15 Calm 16.09 Overcast OVC080 3 -7 48% 76.23 0.0
01 18:55 W 6 16.09 Overcast OVC080 3 -7 48% 76.25 0.0
01 18:35 SW 6 16.09 Mostly Cloudy BKN070 BKN080 3 -7 48% 76.25 0.0
01 18:15 S 7 16.09 Mostly Cloudy BKN065 3 -7 48% 1 76.25 0.0
01 17:55 SW 6 16.09 Mostly Cloudy BKN065 3 -7 48% 76.25 0.0
01 17:35 SW 11 16.09 Mostly Cloudy BKN065 3 -7 48% 0 76.25 0.0
01 17:15 S 6 16.09 Mostly Cloudy BKN065 BKN075 3 -7 48% 76.25 0.0
01 16:55 S 6 16.09 Mostly Cloudy BKN055 3 -7 48% 76.25 0.0
01 16:35 S 9 16.09 Mostly Cloudy BKN055 4 -7 45% 2 76.25 0.0
01 16:15 SW 11 16.09 Mostly Cloudy BKN055 BKN070 4 -7 45% 2 76.25 0.0
01 15:55 SW 11 16.09 Overcast BKN055 OVC075 4 -7 45% 2 76.25 0.0
01 15:35 S 9 16.09 Overcast BKN055 OVC065 4 -7 45% 2 76.25 0.0
01 15:15 S 6 16.09 Mostly Cloudy BKN055 BKN070 4 -7 45% 76.25 0.0
01 14:55 S 9 16.09 Mostly Cloudy BKN055 4 -7 45% 2 76.25 0.0
01 14:35 S 6 16.09 Overcast OVC055 4 -7 45% 76.25 0.0
01 14:15 S 7 16.09 Overcast OVC055 4 -7 45% 2 76.28 0.0
01 13:55 N 9 16.09 Overcast OVC055 5 -8 39% 3 76.28 0.0
01 13:35 N 15 16.09 Overcast OVC055 5 -7 42% 2 76.28 0.0
01 13:15 NE 11 16.09 Overcast OVC055 5 -7 42% 3 76.28 0.0
01 12:55 N 7 16.09 Overcast OVC055 4 -8 42% 2 76.28 0.0
01 12:35 N 13 16.09 Overcast OVC055 5 -8 39% 2 76.28 0.0
01 12:15 NW 15 16.09 Mostly Cloudy BKN055 6 -7 39% 3 76.28 0.0
01 11:55 N 17 16.09 Mostly Cloudy BKN049 4 -8 42% 1 76.3 0.0
01 11:35 NE 13 16.09 Mostly Cloudy SCT049 BKN055 3 -8 45% 0 76.3 0.0
01 11:15 N 11 G 33 16.09 Partly Cloudy SCT049 4 -8 42% 2 76.28 0.0
01 10:55 N 19 16.09 Mostly Cloudy BKN047 3 -7 48% -1 76.3 0.0
01 10:35 N 11 16.09 Mostly Cloudy BKN045 2 -8 48% -1 76.3 0.0
01 10:15 N 15 16.09 Partly Cloudy SCT043 3 -7 48% -0 76.3 0.0
01 09:55 N 17 16.09 Partly Cloudy SCT041 2 -7 52% -2 76.3 0.0
01 09:35 N 13 16.09 Partly Cloudy SCT041 2 -7 52% -1 76.3 0.0
01 09:15 N 19 16.09 Partly Cloudy SCT039 2 -7 52% -2 76.3 0.0
01 08:55 N 17 16.09 Fair CLR 2 -7 52% -2 76.3 0.0
01 08:35 N 9 16.09 Fair CLR 1 -7 56% -2 76.3 0.0
01 08:15 N 9 16.09 Fair CLR 1 -7 56% -2 76.3 0.0
01 07:55 N 13 16.09 Fair CLR 0 -6 64% -4 76.3 0.0
01 07:35 N 13 16.09 Fair CLR -1 -6 69% -5 76.28 0.0
01 07:15 N 9 16.09 Fair CLR -2 -6 74% -5 76.28 0.0
01 06:55 N 9 16.09 Fair CLR -2 -6 74% -5 76.28 0.0
01 06:35 N 9 16.09 Fair CLR -3 -6 80% -6 76.25 0.0
01 06:15 N 11 16.09 Fair CLR -4 -6 86% -8 76.25 0.0
01 05:55 N 11 16.09 Fair CLR -4 -7 80% -8 76.25 0.0
01 05:35 N 9 16.09 Fair CLR -4 -7 80% -7 76.23 0.0
01 05:15 N 9 16.09 Fair CLR -5 -7 86% -9 76.23 0.0
01 04:55 N 7 16.09 Fair CLR -4 -6 86% -7 76.23 0.0
01 04:35 N 9 16.09 Fair CLR -4 -6 86% -7 76.23 0.0
01 04:15 N 9 16.09 Fair CLR -4 -6 86% -7 76.23 0.0
01 03:55 N 9 16.09 Fair CLR -4 -6 86% -7 76.23 0.0
01 03:35 N 7 16.09 Fair CLR -4 -6 86% -7 76.2 0.0
01 03:15 N 7 16.09 Fair CLR -4 -6 86% -7 76.2 0.0
01 02:55 N 9 16.09 Fair CLR -3 -6 80% -6 76.2 0.0
01 02:35 N 7 16.09 Fair CLR -3 -6 80% -6 76.2 0.0
01 02:15 N 7 16.09 Fair CLR -3 -6 80% -6 76.23 0.0
01 01:55 N 7 16.09 Partly Cloudy SCT050 -3 -6 80% -6 76.23 0.0
01 01:35 N 7 16.09 Partly Cloudy SCT050 -2 -6 74% -4 76.23 0.0
01 01:15 N 9 16.09 Partly Cloudy SCT050 -2 -6 74% -5 76.23 0.0
01 00:55 N 7 16.09 Partly Cloudy SCT050 -2 -6 74% -4 76.23 0.0
01 00:35 N 6 16.09 Overcast OVC050 -2 -6 74% 76.23 0.0
01 00:15 N 6 16.09 Overcast OVC048 -1 -6 69% 76.2 0.0
30 23:55 N 6 16.09 Overcast OVC046 -1 -6 69% 76.2 0.0
30 23:35 N 7 16.09 Overcast OVC042 -1 -6 69% -3 76.2 0.0
30 23:15 N 7 16.09 Overcast OVC044 -1 -6 69% -3 76.2 0.0
30 22:55 N 7 16.09 Overcast OVC044 0 -6 64% -2 76.2 0.0
30 22:35 N 7 16.09 Overcast OVC042 0 -6 64% -2 76.23 0.0
30 22:15 N 6 16.09 Overcast OVC042 0 -6 64% 76.23 0.0
30 21:55 N 7 16.09 Overcast OVC040 0 -6 64% -2 76.23 0.0
30 21:35 N 7 16.09 Overcast OVC042 0 -6 64% -2 76.23 0.0
30 21:15 N 7 16.09 Overcast OVC044 1 -6 60% -1 76.2 0.0
30 20:55 N 7 16.09 Overcast OVC046 1 -6 60% -1 76.2 0.0
30 20:35 N 9 16.09 Overcast OVC046 1 -7 56% -2 76.2 0.0
30 20:15 N 9 16.09 Overcast OVC046 1 -7 56% -2 76.17 0.0
30 19:55 N 11 16.09 Overcast OVC050 1 -7 56% -2 76.17 0.0
30 19:35 N 13 16.09 Overcast OVC050 1 -7 56% -2 76.17 0.0
30 19:15 NW 9 16.09 Overcast OVC050 2 -7 52% -0 76.17 0.0
30 18:55 NW 11 16.09 Overcast OVC050 2 -7 52% -1 76.15 0.0
30 18:35 NW 7 16.09 Overcast OVC050 2 -7 52% 0 76.15 0.0
30 18:15 NW 9 16.09 Overcast OVC050 2 -8 48% -0 76.15 0.0
30 17:55 NW 7 16.09 Overcast OVC050 2 -8 48% 0 76.15 0.0
30 17:35 NW 7 16.09 Overcast OVC050 2 -7 52% 0 76.17 0.0
30 17:15 NW 7 16.09 Overcast OVC048 2 -7 52% 0 76.17 0.0
30 16:55 NW 9 16.09 Overcast OVC048 2 -7 52% -0 76.17 0.0
30 16:35 N 13 16.09 Overcast OVC048 2 -7 52% -1 76.17 0.0
30 16:15 N 13 16.09 Overcast OVC048 2 -7 52% -1 76.15 0.0
30 15:55 N 13 16.09 Overcast OVC048 2 -7 52% -1 76.17 0.0
30 15:35 NW 9 16.09 Overcast OVC048 2 -7 52% -0 76.17 0.0
30 15:15 NW 9 16.09 Overcast OVC048 2 -8 48% -0 76.17 0.0
30 14:55 N 11 16.09 Overcast OVC048 2 -7 52% -1 76.17 0.0
30 14:35 NW 9 16.09 Overcast OVC048 2 -8 48% -0 76.17 0.0
Date Time (cdt) Wind (kph) Vis. (km) Weather Sky Cond. Air Dwpt Max. Min. Relative Humidity Wind Chill (°C) Heat Index (°C) altimeter (cm) sea level (mb) 1 hr 3 hr 6 hr
6 hour
Temperature (ºC) Pressure Precipitation (cm)